Terminal Aerodrome Forecast
Issued by NWS

Home | Current Version | Previous Version | Text Only | Print | Product List | Glossary On
Versions: 1 2 3 4 5 6 7 8 9 10 11 12 13 14 15 16 17 18 19 20 21 22 23 24 25
030
FTUS43 KICT 240520
TAFRSL
TAF
KRSL 240520Z 2406/2506 17022G30KT P6SM BKN200
     FM241100 16012KT P6SM SCT250
     FM242200 35020G30KT P6SM BKN025=

USA.gov is the U.S. government's official web portal to all federal, state and local government web resources and services.